»·PEaware :: SWA485 KLAS-KBUR

SWA485 :: KLAS-KBUR

FLIGHT INFORMATION

Flight Status: Arrived
Operator:
Southwest Airlines
More flights by this operator :: More flights under this callsign
Pilot: Anonymous 39875 (39875)
Aircraft: BOEING 737-800
(B738)
More flights by this aircraft type
Origin: KLAS Harry Reid Intl
United States
Destination: KBUR Bob Hope-Burbank
United States
More flights between these airports :: More routes between these airports
Route: RADYR2 SLVRR KREME JANNY5
File this flight plan on PilotEdge
Remarks: RMK / SIMBRIEF
Altitude:
(Current/Filed)
22,000ft
Speed:
(Current/Filed)
460kts
Departed: 24-Sep-22 07:42 PM
Arrived: 24-Sep-22 08:29 PM
Distance/Time
Traveled:
193nm/0:47
Distance/Time
To Go:
Arrived

Flight Plot

Page will automatically refresh every two minutes.

Flight plan parsing failed; only flown route is shown


Map Options




Map Legend


Flown Route
Filed Route
Departure Airport
Arrival Airport
Navaid (VOR, NDB)
Fix

Horizontal Profiles

Position Reports

Time Latitude Longitude Heading Altitude Ground
Speed
24-Sep-22 19:22 36.080206 -115.147392 54 2189ft 0kts
24-Sep-22 19:23 36.080206 -115.147392 54 2189ft 0kts
24-Sep-22 19:24 36.080206 -115.147392 54 2189ft 0kts
24-Sep-22 19:25 36.080206 -115.147392 54 2189ft 0kts
24-Sep-22 19:26 36.080206 -115.147392 54 2189ft 0kts
24-Sep-22 19:27 36.080206 -115.147392 54 2189ft 0kts
24-Sep-22 19:28 36.080206 -115.147392 54 2189ft 0kts
24-Sep-22 19:29 36.080206 -115.147392 54 2189ft 0kts
24-Sep-22 19:30 36.080206 -115.147392 54 2189ft 0kts
24-Sep-22 19:31 36.080206 -115.147392 54 2189ft 0kts
24-Sep-22 19:32 36.080206 -115.147392 54 2189ft 0kts
24-Sep-22 19:33 36.080206 -115.147392 54 2189ft 0kts
24-Sep-22 19:34 36.079837 -115.148029 54 2189ft 2kts
24-Sep-22 19:35 36.079683 -115.148296 54 2189ft 0kts
24-Sep-22 19:36 36.079683 -115.148296 54 2189ft 0kts
24-Sep-22 19:37 36.079686 -115.148291 54 2189ft 0kts
24-Sep-22 19:38 36.077951 -115.148792 256 2189ft 10kts
24-Sep-22 19:39 36.078013 -115.153498 271 2189ft 17kts
24-Sep-22 19:40 36.078047 -115.160386 270 2189ft 16kts
24-Sep-22 19:40 36.076403 -115.159857 91 2189ft 16kts
24-Sep-22 19:42 36.074611 -115.099993 98 4055ft 210kts
24-Sep-22 19:43 36.046279 -115.037264 84 7060ft 226kts
24-Sep-22 19:44 36.054808 -114.959537 92 10001ft 247kts
24-Sep-22 19:44 36.024638 -114.897433 153 11469ft 284kts
24-Sep-22 19:45 35.952363 -114.919518 228 13313ft 312kts
24-Sep-22 19:46 35.887029 -114.999616 239 15132ft 341kts
24-Sep-22 19:48 35.860947 -115.132592 260 17347ft 345kts
24-Sep-22 19:49 35.841548 -115.249779 250 20329ft 358kts
24-Sep-22 19:49 35.773352 -115.315599 201 22193ft 420kts
24-Sep-22 19:50 35.661283 -115.363841 201 22133ft 427kts
24-Sep-22 19:51 35.564879 -115.447561 229 22128ft 434kts
24-Sep-22 19:52 35.483860 -115.557169 228 22112ft 435kts
24-Sep-22 19:53 35.402330 -115.666898 228 22105ft 435kts
24-Sep-22 19:54 35.318683 -115.773986 224 22097ft 436kts
24-Sep-22 19:55 35.228695 -115.874401 223 22080ft 437kts
24-Sep-22 19:56 35.138754 -115.974397 223 22081ft 437kts
24-Sep-22 19:57 35.048781 -116.074449 223 22078ft 437kts
24-Sep-22 19:58 34.958940 -116.174057 223 22079ft 437kts
24-Sep-22 19:59 34.889808 -116.293628 245 22098ft 435kts
24-Sep-22 20:00 34.838182 -116.426688 245 22110ft 434kts
24-Sep-22 20:01 34.790251 -116.560987 254 22121ft 427kts
24-Sep-22 20:02 34.774056 -116.695562 264 22090ft 388kts
24-Sep-22 20:03 34.761387 -116.825418 263 21334ft 384kts
24-Sep-22 20:04 34.748664 -116.952867 263 20433ft 376kts
24-Sep-22 20:05 34.735925 -117.078079 263 19524ft 370kts
24-Sep-22 20:06 34.723303 -117.201055 263 18615ft 365kts
24-Sep-22 20:07 34.710685 -117.322737 262 17716ft 360kts
24-Sep-22 20:08 34.698120 -117.442700 262 16816ft 355kts
24-Sep-22 20:09 34.685571 -117.561024 262 16002ft 350kts
24-Sep-22 20:10 34.673124 -117.677806 262 15201ft 346kts
24-Sep-22 20:11 34.661208 -117.790075 262 14429ft 323kts
24-Sep-22 20:12 34.649919 -117.895141 262 13701ft 309kts
24-Sep-22 20:13 34.638524 -117.999271 262 12403ft 312kts
24-Sep-22 20:14 34.623625 -118.099109 254 11145ft 294kts
24-Sep-22 20:15 34.602228 -118.195346 254 10000ft 295kts
24-Sep-22 20:16 34.580903 -118.290945 253 8749ft 290kts
24-Sep-22 20:17 34.559570 -118.386050 253 8025ft 293kts
24-Sep-22 20:18 34.514658 -118.458014 208 7666ft 272kts
24-Sep-22 20:19 34.452747 -118.508164 212 7017ft 259kts
24-Sep-22 20:20 34.392465 -118.555163 212 6317ft 257kts
24-Sep-22 20:21 34.328328 -118.586146 180 5544ft 247kts
24-Sep-22 20:22 34.262397 -118.583123 176 4743ft 226kts
24-Sep-22 20:23 34.208967 -118.561058 126 4035ft 202kts
24-Sep-22 20:24 34.198157 -118.499789 81 2771ft 167kts
24-Sep-22 20:25 34.198993 -118.451241 92 2155ft 140kts
24-Sep-22 20:26 34.198406 -118.405261 91 1339ft 133kts
24-Sep-22 20:27 34.197858 -118.361471 92 730ft 114kts
24-Sep-22 20:28 34.197369 -118.351497 174 729ft 5kts
24-Sep-22 20:29 34.196832 -118.351495 180 729ft 0kts

Navigation Log

Ident Type
Flight plan parsing failed, navigation log unavailable